sensor_id;sensor_type;location;lat;lon;timestamp;P1;durP1;ratioP1;P2;durP2;ratioP2
72895;SDS011;61036;53.224;6.554;2022-08-21T00:02:19;13.43;;;6.60;;
72895;SDS011;61036;53.224;6.554;2022-08-21T00:04:46;16.77;;;6.53;;
72895;SDS011;61036;53.224;6.554;2022-08-21T00:07:12;16.47;;;5.63;;
72895;SDS011;61036;53.224;6.554;2022-08-21T00:09:38;7.90;;;3.93;;
72895;SDS011;61036;53.224;6.554;2022-08-21T00:12:04;9.33;;;4.33;;
72895;SDS011;61036;53.224;6.554;2022-08-21T00:14:32;11.40;;;6.00;;
72895;SDS011;61036;53.224;6.554;2022-08-21T00:16:58;11.40;;;5.10;;
72895;SDS011;61036;53.224;6.554;2022-08-21T00:19:25;9.13;;;4.63;;
72895;SDS011;61036;53.224;6.554;2022-08-21T00:21:52;10.67;;;4.67;;
72895;SDS011;61036;53.224;6.554;2022-08-21T00:24:18;10.53;;;4.97;;
72895;SDS011;61036;53.224;6.554;2022-08-21T00:26:45;10.40;;;5.20;;
72895;SDS011;61036;53.224;6.554;2022-08-21T00:29:11;11.40;;;4.60;;
72895;SDS011;61036;53.224;6.554;2022-08-21T00:31:42;7.23;;;4.20;;
72895;SDS011;61036;53.224;6.554;2022-08-21T00:34:09;8.93;;;4.13;;
72895;SDS011;61036;53.224;6.554;2022-08-21T00:36:35;9.60;;;4.30;;
72895;SDS011;61036;53.224;6.554;2022-08-21T00:39:03;9.33;;;4.43;;
72895;SDS011;61036;53.224;6.554;2022-08-21T00:41:30;6.40;;;4.03;;
72895;SDS011;61036;53.224;6.554;2022-08-21T00:43:55;7.77;;;3.80;;
72895;SDS011;61036;53.224;6.554;2022-08-21T00:46:21;7.23;;;4.27;;
72895;SDS011;61036;53.224;6.554;2022-08-21T00:48:47;8.57;;;4.23;;
72895;SDS011;61036;53.224;6.554;2022-08-21T00:51:14;11.57;;;4.17;;
72895;SDS011;61036;53.224;6.554;2022-08-21T00:53:48;9.07;;;4.27;;
72895;SDS011;61036;53.224;6.554;2022-08-21T00:56:17;11.07;;;5.40;;
72895;SDS011;61036;53.224;6.554;2022-08-21T00:58:46;8.10;;;4.73;;
72895;SDS011;61036;53.224;6.554;2022-08-21T01:01:13;7.17;;;4.00;;
72895;SDS011;61036;53.224;6.554;2022-08-21T01:03:39;7.53;;;3.83;;
72895;SDS011;61036;53.224;6.554;2022-08-21T01:06:05;8.43;;;4.30;;
72895;SDS011;61036;53.224;6.554;2022-08-21T01:08:31;7.37;;;4.30;;
72895;SDS011;61036;53.224;6.554;2022-08-21T01:10:58;7.67;;;4.40;;
72895;SDS011;61036;53.224;6.554;2022-08-21T01:13:24;8.93;;;4.30;;
72895;SDS011;61036;53.224;6.554;2022-08-21T01:15:51;6.60;;;4.00;;
72895;SDS011;61036;53.224;6.554;2022-08-21T01:18:22;10.07;;;4.57;;
72895;SDS011;61036;53.224;6.554;2022-08-21T01:23:28;8.03;;;4.23;;
72895;SDS011;61036;53.224;6.554;2022-08-21T01:25:54;7.00;;;3.80;;
72895;SDS011;61036;53.224;6.554;2022-08-21T01:28:19;11.07;;;4.97;;
72895;SDS011;61036;53.224;6.554;2022-08-21T01:30:47;10.27;;;4.63;;
72895;SDS011;61036;53.224;6.554;2022-08-21T01:33:17;7.60;;;4.60;;
72895;SDS011;61036;53.224;6.554;2022-08-21T01:35:45;10.60;;;4.10;;
72895;SDS011;61036;53.224;6.554;2022-08-21T01:38:13;8.37;;;4.17;;
72895;SDS011;61036;53.224;6.554;2022-08-21T01:40:38;10.07;;;5.23;;
72895;SDS011;61036;53.224;6.554;2022-08-21T01:43:05;9.63;;;4.73;;
72895;SDS011;61036;53.224;6.554;2022-08-21T01:45:30;8.97;;;4.70;;
72895;SDS011;61036;53.224;6.554;2022-08-21T01:47:56;9.63;;;4.87;;
72895;SDS011;61036;53.224;6.554;2022-08-21T01:50:22;11.27;;;4.73;;
72895;SDS011;61036;53.224;6.554;2022-08-21T01:52:48;9.73;;;5.73;;
72895;SDS011;61036;53.224;6.554;2022-08-21T01:55:15;9.33;;;4.77;;
72895;SDS011;61036;53.224;6.554;2022-08-21T01:57:45;8.93;;;4.50;;
72895;SDS011;61036;53.224;6.554;2022-08-21T02:00:13;9.40;;;4.87;;
72895;SDS011;61036;53.224;6.554;2022-08-21T02:02:40;8.97;;;4.87;;
72895;SDS011;61036;53.224;6.554;2022-08-21T02:05:07;10.03;;;5.10;;
72895;SDS011;61036;53.224;6.554;2022-08-21T02:07:37;8.93;;;4.77;;
72895;SDS011;61036;53.224;6.554;2022-08-21T02:10:14;9.77;;;4.90;;
72895;SDS011;61036;53.224;6.554;2022-08-21T02:12:43;8.80;;;4.90;;
72895;SDS011;61036;53.224;6.554;2022-08-21T02:15:12;9.73;;;4.63;;
72895;SDS011;61036;53.224;6.554;2022-08-21T02:17:43;9.93;;;5.27;;
72895;SDS011;61036;53.224;6.554;2022-08-21T02:20:17;8.17;;;5.03;;
72895;SDS011;61036;53.224;6.554;2022-08-21T02:22:47;10.23;;;4.77;;
72895;SDS011;61036;53.224;6.554;2022-08-21T02:25:15;9.63;;;4.90;;
72895;SDS011;61036;53.224;6.554;2022-08-21T02:27:42;9.57;;;5.67;;
72895;SDS011;61036;53.224;6.554;2022-08-21T02:30:10;8.30;;;5.17;;
72895;SDS011;61036;53.224;6.554;2022-08-21T02:32:38;9.93;;;5.07;;
72895;SDS011;61036;53.224;6.554;2022-08-21T02:35:05;10.20;;;5.57;;
72895;SDS011;61036;53.224;6.554;2022-08-21T02:37:31;8.77;;;5.60;;
72895;SDS011;61036;53.224;6.554;2022-08-21T02:39:56;9.30;;;5.30;;
72895;SDS011;61036;53.224;6.554;2022-08-21T02:42:24;8.77;;;5.63;;
72895;SDS011;61036;53.224;6.554;2022-08-21T02:44:50;10.77;;;5.37;;
72895;SDS011;61036;53.224;6.554;2022-08-21T02:47:18;8.33;;;5.10;;
72895;SDS011;61036;53.224;6.554;2022-08-21T02:49:45;9.77;;;5.57;;
72895;SDS011;61036;53.224;6.554;2022-08-21T02:52:11;10.93;;;5.33;;
72895;SDS011;61036;53.224;6.554;2022-08-21T02:54:37;9.40;;;5.87;;
72895;SDS011;61036;53.224;6.554;2022-08-21T02:57:02;10.60;;;5.70;;
72895;SDS011;61036;53.224;6.554;2022-08-21T02:59:28;10.40;;;5.70;;
72895;SDS011;61036;53.224;6.554;2022-08-21T03:01:54;10.20;;;5.90;;
72895;SDS011;61036;53.224;6.554;2022-08-21T03:04:20;12.50;;;5.97;;
72895;SDS011;61036;53.224;6.554;2022-08-21T03:06:47;10.50;;;5.37;;
72895;SDS011;61036;53.224;6.554;2022-08-21T03:09:13;12.07;;;6.20;;
72895;SDS011;61036;53.224;6.554;2022-08-21T03:11:39;8.50;;;5.33;;
72895;SDS011;61036;53.224;6.554;2022-08-21T03:14:04;11.27;;;5.03;;
72895;SDS011;61036;53.224;6.554;2022-08-21T03:16:30;9.07;;;5.43;;
72895;SDS011;61036;53.224;6.554;2022-08-21T03:18:56;11.07;;;5.10;;
72895;SDS011;61036;53.224;6.554;2022-08-21T03:21:24;9.73;;;5.67;;
72895;SDS011;61036;53.224;6.554;2022-08-21T03:23:49;10.67;;;5.47;;
72895;SDS011;61036;53.224;6.554;2022-08-21T03:26:15;11.47;;;5.80;;
72895;SDS011;61036;53.224;6.554;2022-08-21T03:28:43;9.10;;;5.10;;
72895;SDS011;61036;53.224;6.554;2022-08-21T03:31:09;8.07;;;5.27;;
72895;SDS011;61036;53.224;6.554;2022-08-21T03:33:34;9.83;;;5.10;;
72895;SDS011;61036;53.224;6.554;2022-08-21T03:36:02;8.40;;;5.33;;
72895;SDS011;61036;53.224;6.554;2022-08-21T03:38:31;10.17;;;5.60;;
72895;SDS011;61036;53.224;6.554;2022-08-21T03:40:59;11.43;;;5.73;;
72895;SDS011;61036;53.224;6.554;2022-08-21T03:43:25;11.93;;;5.50;;
72895;SDS011;61036;53.224;6.554;2022-08-21T03:45:51;10.70;;;5.70;;
72895;SDS011;61036;53.224;6.554;2022-08-21T03:48:17;9.83;;;5.20;;
72895;SDS011;61036;53.224;6.554;2022-08-21T03:50:44;9.53;;;5.10;;
72895;SDS011;61036;53.224;6.554;2022-08-21T03:53:13;8.13;;;5.30;;
72895;SDS011;61036;53.224;6.554;2022-08-21T03:55:39;9.37;;;5.60;;
72895;SDS011;61036;53.224;6.554;2022-08-21T03:58:05;10.07;;;6.20;;
72895;SDS011;61036;53.224;6.554;2022-08-21T04:00:31;9.70;;;5.80;;
72895;SDS011;61036;53.224;6.554;2022-08-21T04:02:57;8.80;;;5.60;;
72895;SDS011;61036;53.224;6.554;2022-08-21T04:05:23;8.50;;;5.57;;
72895;SDS011;61036;53.224;6.554;2022-08-21T04:07:59;11.20;;;5.93;;
72895;SDS011;61036;53.224;6.554;2022-08-21T04:10:28;11.87;;;5.90;;
72895;SDS011;61036;53.224;6.554;2022-08-21T04:12:55;8.67;;;5.50;;
72895;SDS011;61036;53.224;6.554;2022-08-21T04:15:22;12.93;;;5.97;;
72895;SDS011;61036;53.224;6.554;2022-08-21T04:17:49;10.43;;;6.20;;
72895;SDS011;61036;53.224;6.554;2022-08-21T04:20:17;12.40;;;6.47;;
72895;SDS011;61036;53.224;6.554;2022-08-21T04:22:43;13.03;;;6.13;;
72895;SDS011;61036;53.224;6.554;2022-08-21T04:25:10;7.63;;;5.80;;
72895;SDS011;61036;53.224;6.554;2022-08-21T04:27:37;10.33;;;6.57;;
72895;SDS011;61036;53.224;6.554;2022-08-21T04:30:05;10.17;;;6.20;;
72895;SDS011;61036;53.224;6.554;2022-08-21T04:32:32;9.33;;;6.30;;
72895;SDS011;61036;53.224;6.554;2022-08-21T04:34:59;10.47;;;6.10;;
72895;SDS011;61036;53.224;6.554;2022-08-21T04:37:29;8.50;;;5.60;;
72895;SDS011;61036;53.224;6.554;2022-08-21T04:39:55;12.57;;;6.87;;
72895;SDS011;61036;53.224;6.554;2022-08-21T04:42:25;11.13;;;5.93;;
72895;SDS011;61036;53.224;6.554;2022-08-21T04:44:52;9.07;;;5.57;;
72895;SDS011;61036;53.224;6.554;2022-08-21T04:47:18;9.57;;;5.70;;
72895;SDS011;61036;53.224;6.554;2022-08-21T04:49:46;11.70;;;6.07;;
72895;SDS011;61036;53.224;6.554;2022-08-21T04:52:19;10.47;;;5.83;;
72895;SDS011;61036;53.224;6.554;2022-08-21T04:54:51;10.10;;;6.17;;
72895;SDS011;61036;53.224;6.554;2022-08-21T04:57:18;10.53;;;5.90;;
72895;SDS011;61036;53.224;6.554;2022-08-21T04:59:45;8.97;;;5.90;;
72895;SDS011;61036;53.224;6.554;2022-08-21T05:02:13;9.33;;;6.40;;
72895;SDS011;61036;53.224;6.554;2022-08-21T05:04:42;10.20;;;5.63;;
72895;SDS011;61036;53.224;6.554;2022-08-21T05:07:19;9.77;;;6.13;;
72895;SDS011;61036;53.224;6.554;2022-08-21T05:09:47;10.43;;;6.03;;
72895;SDS011;61036;53.224;6.554;2022-08-21T05:12:14;8.83;;;5.80;;
72895;SDS011;61036;53.224;6.554;2022-08-21T05:14:40;10.00;;;5.43;;
72895;SDS011;61036;53.224;6.554;2022-08-21T05:17:07;9.77;;;5.70;;
72895;SDS011;61036;53.224;6.554;2022-08-21T05:19:34;10.97;;;5.70;;
72895;SDS011;61036;53.224;6.554;2022-08-21T05:22:00;14.90;;;6.73;;
72895;SDS011;61036;53.224;6.554;2022-08-21T05:24:26;11.07;;;5.57;;
72895;SDS011;61036;53.224;6.554;2022-08-21T05:26:53;9.50;;;5.67;;
72895;SDS011;61036;53.224;6.554;2022-08-21T05:29:19;9.90;;;5.40;;
72895;SDS011;61036;53.224;6.554;2022-08-21T05:31:46;11.63;;;6.03;;
72895;SDS011;61036;53.224;6.554;2022-08-21T05:34:19;10.20;;;6.17;;
72895;SDS011;61036;53.224;6.554;2022-08-21T05:36:46;10.73;;;5.17;;
72895;SDS011;61036;53.224;6.554;2022-08-21T05:39:12;8.37;;;5.10;;
72895;SDS011;61036;53.224;6.554;2022-08-21T05:41:41;9.57;;;5.87;;
72895;SDS011;61036;53.224;6.554;2022-08-21T05:44:07;9.00;;;5.47;;
72895;SDS011;61036;53.224;6.554;2022-08-21T05:46:33;8.33;;;5.47;;
72895;SDS011;61036;53.224;6.554;2022-08-21T05:48:59;11.03;;;5.93;;
72895;SDS011;61036;53.224;6.554;2022-08-21T05:51:25;9.93;;;5.03;;
72895;SDS011;61036;53.224;6.554;2022-08-21T05:53:52;8.17;;;4.80;;
72895;SDS011;61036;53.224;6.554;2022-08-21T05:56:18;10.77;;;5.17;;
72895;SDS011;61036;53.224;6.554;2022-08-21T05:58:44;9.40;;;5.20;;
72895;SDS011;61036;53.224;6.554;2022-08-21T06:01:09;9.57;;;4.90;;
72895;SDS011;61036;53.224;6.554;2022-08-21T06:03:37;9.73;;;5.40;;
72895;SDS011;61036;53.224;6.554;2022-08-21T06:06:05;10.17;;;6.00;;
72895;SDS011;61036;53.224;6.554;2022-08-21T06:08:32;11.13;;;5.70;;
72895;SDS011;61036;53.224;6.554;2022-08-21T06:10:59;9.90;;;5.50;;
72895;SDS011;61036;53.224;6.554;2022-08-21T06:13:26;9.37;;;5.33;;
72895;SDS011;61036;53.224;6.554;2022-08-21T06:16:06;11.57;;;5.80;;
72895;SDS011;61036;53.224;6.554;2022-08-21T06:18:37;13.00;;;6.17;;
72895;SDS011;61036;53.224;6.554;2022-08-21T06:21:03;10.90;;;5.50;;
72895;SDS011;61036;53.224;6.554;2022-08-21T06:23:29;10.37;;;5.10;;
72895;SDS011;61036;53.224;6.554;2022-08-21T06:25:56;10.23;;;4.90;;
72895;SDS011;61036;53.224;6.554;2022-08-21T06:28:22;11.10;;;5.20;;
72895;SDS011;61036;53.224;6.554;2022-08-21T06:30:48;10.67;;;5.13;;
72895;SDS011;61036;53.224;6.554;2022-08-21T06:33:13;11.13;;;5.07;;
72895;SDS011;61036;53.224;6.554;2022-08-21T06:35:39;11.43;;;5.03;;
72895;SDS011;61036;53.224;6.554;2022-08-21T06:38:08;8.70;;;5.43;;
72895;SDS011;61036;53.224;6.554;2022-08-21T06:40:35;13.80;;;5.57;;
72895;SDS011;61036;53.224;6.554;2022-08-21T06:43:06;10.23;;;4.80;;
72895;SDS011;61036;53.224;6.554;2022-08-21T06:45:36;11.23;;;5.17;;
72895;SDS011;61036;53.224;6.554;2022-08-21T06:48:03;9.50;;;5.13;;
72895;SDS011;61036;53.224;6.554;2022-08-21T06:50:32;7.27;;;3.93;;
72895;SDS011;61036;53.224;6.554;2022-08-21T06:53:07;10.53;;;4.50;;
72895;SDS011;61036;53.224;6.554;2022-08-21T06:55:37;10.90;;;4.30;;
72895;SDS011;61036;53.224;6.554;2022-08-21T06:58:04;9.23;;;4.27;;
72895;SDS011;61036;53.224;6.554;2022-08-21T07:00:30;11.47;;;4.17;;
72895;SDS011;61036;53.224;6.554;2022-08-21T07:02:59;11.17;;;4.40;;
72895;SDS011;61036;53.224;6.554;2022-08-21T07:05:25;9.27;;;4.00;;
72895;SDS011;61036;53.224;6.554;2022-08-21T07:07:52;10.37;;;3.80;;
72895;SDS011;61036;53.224;6.554;2022-08-21T07:10:17;9.10;;;3.50;;
72895;SDS011;61036;53.224;6.554;2022-08-21T07:12:46;9.63;;;3.40;;
72895;SDS011;61036;53.224;6.554;2022-08-21T07:15:11;9.83;;;3.40;;
72895;SDS011;61036;53.224;6.554;2022-08-21T07:17:37;7.50;;;3.20;;
72895;SDS011;61036;53.224;6.554;2022-08-21T07:20:03;8.67;;;3.57;;
72895;SDS011;61036;53.224;6.554;2022-08-21T07:22:30;9.30;;;3.40;;
72895;SDS011;61036;53.224;6.554;2022-08-21T07:24:56;8.63;;;3.23;;
72895;SDS011;61036;53.224;6.554;2022-08-21T07:27:22;8.00;;;3.40;;
72895;SDS011;61036;53.224;6.554;2022-08-21T07:29:47;6.33;;;2.47;;
72895;SDS011;61036;53.224;6.554;2022-08-21T07:32:13;9.63;;;3.10;;
72895;SDS011;61036;53.224;6.554;2022-08-21T07:34:40;7.17;;;2.87;;
72895;SDS011;61036;53.224;6.554;2022-08-21T07:37:08;8.27;;;3.13;;
72895;SDS011;61036;53.224;6.554;2022-08-21T07:39:34;8.20;;;2.93;;
72895;SDS011;61036;53.224;6.554;2022-08-21T07:42:00;6.83;;;2.43;;
72895;SDS011;61036;53.224;6.554;2022-08-21T07:44:25;8.43;;;2.87;;
72895;SDS011;61036;53.224;6.554;2022-08-21T07:46:51;8.07;;;2.60;;
72895;SDS011;61036;53.224;6.554;2022-08-21T07:49:17;8.00;;;2.40;;
72895;SDS011;61036;53.224;6.554;2022-08-21T07:51:43;7.93;;;2.60;;
72895;SDS011;61036;53.224;6.554;2022-08-21T07:54:08;7.27;;;2.23;;
72895;SDS011;61036;53.224;6.554;2022-08-21T07:56:34;6.67;;;2.60;;
72895;SDS011;61036;53.224;6.554;2022-08-21T07:59:00;9.30;;;3.27;;
72895;SDS011;61036;53.224;6.554;2022-08-21T08:01:27;11.77;;;3.57;;
72895;SDS011;61036;53.224;6.554;2022-08-21T08:03:53;7.40;;;2.40;;
72895;SDS011;61036;53.224;6.554;2022-08-21T08:06:20;7.13;;;2.30;;
72895;SDS011;61036;53.224;6.554;2022-08-21T08:08:45;7.53;;;2.90;;
72895;SDS011;61036;53.224;6.554;2022-08-21T08:11:12;9.10;;;2.40;;
72895;SDS011;61036;53.224;6.554;2022-08-21T08:13:50;5.87;;;2.30;;
72895;SDS011;61036;53.224;6.554;2022-08-21T08:16:17;8.17;;;2.70;;
72895;SDS011;61036;53.224;6.554;2022-08-21T08:18:43;6.57;;;2.60;;
72895;SDS011;61036;53.224;6.554;2022-08-21T08:21:10;11.30;;;3.10;;
72895;SDS011;61036;53.224;6.554;2022-08-21T08:23:36;10.10;;;2.97;;
72895;SDS011;61036;53.224;6.554;2022-08-21T08:26:02;9.03;;;2.60;;
72895;SDS011;61036;53.224;6.554;2022-08-21T08:28:29;7.80;;;2.67;;
72895;SDS011;61036;53.224;6.554;2022-08-21T08:30:59;11.37;;;3.37;;
72895;SDS011;61036;53.224;6.554;2022-08-21T08:33:25;7.60;;;2.80;;
72895;SDS011;61036;53.224;6.554;2022-08-21T08:35:52;9.57;;;3.00;;
72895;SDS011;61036;53.224;6.554;2022-08-21T08:38:18;7.93;;;2.53;;
72895;SDS011;61036;53.224;6.554;2022-08-21T08:43:21;8.43;;;2.80;;
72895;SDS011;61036;53.224;6.554;2022-08-21T08:45:49;6.70;;;3.23;;
72895;SDS011;61036;53.224;6.554;2022-08-21T08:51:16;7.90;;;3.00;;
72895;SDS011;61036;53.224;6.554;2022-08-21T08:53:52;9.00;;;3.33;;
72895;SDS011;61036;53.224;6.554;2022-08-21T08:56:24;8.93;;;3.33;;
72895;SDS011;61036;53.224;6.554;2022-08-21T08:58:59;12.40;;;3.60;;
72895;SDS011;61036;53.224;6.554;2022-08-21T09:01:32;10.67;;;3.67;;
72895;SDS011;61036;53.224;6.554;2022-08-21T09:03:57;9.33;;;3.70;;
72895;SDS011;61036;53.224;6.554;2022-08-21T09:11:52;9.87;;;3.10;;
72895;SDS011;61036;53.224;6.554;2022-08-21T09:19:49;6.30;;;2.93;;
72895;SDS011;61036;53.224;6.554;2022-08-21T09:25:00;8.30;;;3.40;;
72895;SDS011;61036;53.224;6.554;2022-08-21T09:27:32;8.83;;;3.10;;
72895;SDS011;61036;53.224;6.554;2022-08-21T09:29:58;9.33;;;2.90;;
72895;SDS011;61036;53.224;6.554;2022-08-21T09:32:26;8.43;;;2.80;;
72895;SDS011;61036;53.224;6.554;2022-08-21T09:35:02;7.83;;;2.93;;
72895;SDS011;61036;53.224;6.554;2022-08-21T09:37:48;10.33;;;3.20;;
72895;SDS011;61036;53.224;6.554;2022-08-21T09:40:37;7.93;;;3.17;;
72895;SDS011;61036;53.224;6.554;2022-08-21T09:43:13;9.90;;;3.27;;
72895;SDS011;61036;53.224;6.554;2022-08-21T09:45:43;8.40;;;3.00;;
72895;SDS011;61036;53.224;6.554;2022-08-21T09:50:42;10.53;;;3.40;;
72895;SDS011;61036;53.224;6.554;2022-08-21T09:53:27;8.23;;;2.93;;
72895;SDS011;61036;53.224;6.554;2022-08-21T09:56:05;7.37;;;3.17;;
72895;SDS011;61036;53.224;6.554;2022-08-21T09:59:11;6.77;;;3.20;;
72895;SDS011;61036;53.224;6.554;2022-08-21T10:01:43;9.87;;;3.40;;
72895;SDS011;61036;53.224;6.554;2022-08-21T10:04:10;7.87;;;3.50;;
72895;SDS011;61036;53.224;6.554;2022-08-21T10:06:37;11.67;;;4.00;;
72895;SDS011;61036;53.224;6.554;2022-08-21T10:09:07;8.93;;;3.10;;
72895;SDS011;61036;53.224;6.554;2022-08-21T10:11:39;9.23;;;3.70;;
72895;SDS011;61036;53.224;6.554;2022-08-21T10:25:26;7.17;;;3.03;;
72895;SDS011;61036;53.224;6.554;2022-08-21T10:28:21;7.37;;;3.10;;
72895;SDS011;61036;53.224;6.554;2022-08-21T10:31:11;9.83;;;3.23;;
72895;SDS011;61036;53.224;6.554;2022-08-21T10:39:54;5.07;;;2.53;;
72895;SDS011;61036;53.224;6.554;2022-08-21T10:47:47;5.60;;;2.20;;
72895;SDS011;61036;53.224;6.554;2022-08-21T10:50:19;6.57;;;2.50;;
72895;SDS011;61036;53.224;6.554;2022-08-21T10:55:22;7.70;;;2.73;;
72895;SDS011;61036;53.224;6.554;2022-08-21T11:00:21;10.17;;;3.10;;
72895;SDS011;61036;53.224;6.554;2022-08-21T11:03:05;7.17;;;2.70;;
72895;SDS011;61036;53.224;6.554;2022-08-21T11:05:43;10.07;;;2.80;;
72895;SDS011;61036;53.224;6.554;2022-08-21T11:08:19;9.73;;;2.57;;
72895;SDS011;61036;53.224;6.554;2022-08-21T11:11:01;7.50;;;2.70;;
72895;SDS011;61036;53.224;6.554;2022-08-21T11:16:25;9.43;;;3.00;;
72895;SDS011;61036;53.224;6.554;2022-08-21T11:27:17;6.93;;;2.70;;
72895;SDS011;61036;53.224;6.554;2022-08-21T11:29:58;6.67;;;2.67;;
72895;SDS011;61036;53.224;6.554;2022-08-21T11:35:21;8.10;;;2.80;;
72895;SDS011;61036;53.224;6.554;2022-08-21T11:41:08;7.53;;;2.90;;
72895;SDS011;61036;53.224;6.554;2022-08-21T11:57:30;7.00;;;2.90;;
72895;SDS011;61036;53.224;6.554;2022-08-21T12:00:04;8.50;;;3.00;;
72895;SDS011;61036;53.224;6.554;2022-08-21T12:02:51;8.57;;;3.03;;
72895;SDS011;61036;53.224;6.554;2022-08-21T12:05:30;11.67;;;3.13;;
72895;SDS011;61036;53.224;6.554;2022-08-21T12:08:46;11.07;;;3.10;;
72895;SDS011;61036;53.224;6.554;2022-08-21T12:11:10;7.30;;;2.63;;
72895;SDS011;61036;53.224;6.554;2022-08-21T12:13:37;7.80;;;2.90;;
72895;SDS011;61036;53.224;6.554;2022-08-21T12:16:13;8.30;;;3.40;;
72895;SDS011;61036;53.224;6.554;2022-08-21T12:18:41;6.97;;;2.53;;
72895;SDS011;61036;53.224;6.554;2022-08-21T12:26:35;6.27;;;2.60;;
72895;SDS011;61036;53.224;6.554;2022-08-21T12:29:15;6.17;;;2.60;;
72895;SDS011;61036;53.224;6.554;2022-08-21T12:31:49;8.03;;;2.77;;
72895;SDS011;61036;53.224;6.554;2022-08-21T12:34:17;7.37;;;2.40;;
72895;SDS011;61036;53.224;6.554;2022-08-21T12:36:48;5.93;;;2.43;;
72895;SDS011;61036;53.224;6.554;2022-08-21T12:39:22;6.27;;;2.53;;
72895;SDS011;61036;53.224;6.554;2022-08-21T12:41:53;7.40;;;2.63;;
72895;SDS011;61036;53.224;6.554;2022-08-21T12:44:32;9.87;;;5.70;;
72895;SDS011;61036;53.224;6.554;2022-08-21T12:47:05;7.33;;;2.97;;
72895;SDS011;61036;53.224;6.554;2022-08-21T12:49:59;7.17;;;2.90;;
72895;SDS011;61036;53.224;6.554;2022-08-21T12:52:34;6.70;;;2.90;;
72895;SDS011;61036;53.224;6.554;2022-08-21T12:55:06;5.60;;;2.10;;
72895;SDS011;61036;53.224;6.554;2022-08-21T12:57:39;11.20;;;4.63;;
72895;SDS011;61036;53.224;6.554;2022-08-21T13:00:07;7.73;;;2.50;;
72895;SDS011;61036;53.224;6.554;2022-08-21T13:02:38;4.80;;;2.10;;
72895;SDS011;61036;53.224;6.554;2022-08-21T13:05:08;9.30;;;2.00;;
72895;SDS011;61036;53.224;6.554;2022-08-21T13:07:43;5.40;;;2.03;;
72895;SDS011;61036;53.224;6.554;2022-08-21T13:10:21;6.77;;;1.90;;
72895;SDS011;61036;53.224;6.554;2022-08-21T13:12:57;6.80;;;1.97;;
72895;SDS011;61036;53.224;6.554;2022-08-21T13:15:29;7.13;;;2.30;;
72895;SDS011;61036;53.224;6.554;2022-08-21T13:18:01;8.60;;;2.27;;
72895;SDS011;61036;53.224;6.554;2022-08-21T13:20:34;5.50;;;2.10;;
72895;SDS011;61036;53.224;6.554;2022-08-21T13:23:23;9.37;;;2.27;;
72895;SDS011;61036;53.224;6.554;2022-08-21T13:25:50;6.57;;;2.20;;
72895;SDS011;61036;53.224;6.554;2022-08-21T13:28:18;5.90;;;2.20;;
72895;SDS011;61036;53.224;6.554;2022-08-21T13:30:45;7.30;;;2.40;;
72895;SDS011;61036;53.224;6.554;2022-08-21T13:33:15;9.53;;;2.67;;
72895;SDS011;61036;53.224;6.554;2022-08-21T13:35:52;6.30;;;2.20;;
72895;SDS011;61036;53.224;6.554;2022-08-21T13:38:29;4.67;;;2.00;;
72895;SDS011;61036;53.224;6.554;2022-08-21T13:40:58;5.00;;;1.93;;
72895;SDS011;61036;53.224;6.554;2022-08-21T13:43:28;5.57;;;2.10;;
72895;SDS011;61036;53.224;6.554;2022-08-21T13:45:58;7.57;;;2.30;;
72895;SDS011;61036;53.224;6.554;2022-08-21T13:48:25;8.23;;;3.03;;
72895;SDS011;61036;53.224;6.554;2022-08-21T13:50:54;5.20;;;2.10;;
72895;SDS011;61036;53.224;6.554;2022-08-21T13:53:22;5.80;;;2.17;;
72895;SDS011;61036;53.224;6.554;2022-08-21T13:55:51;7.47;;;2.40;;
72895;SDS011;61036;53.224;6.554;2022-08-21T13:58:24;5.60;;;2.23;;
72895;SDS011;61036;53.224;6.554;2022-08-21T14:00:59;5.60;;;2.20;;
72895;SDS011;61036;53.224;6.554;2022-08-21T14:03:33;7.13;;;2.17;;
72895;SDS011;61036;53.224;6.554;2022-08-21T14:06:16;7.23;;;2.77;;
72895;SDS011;61036;53.224;6.554;2022-08-21T14:08:53;7.90;;;2.47;;
72895;SDS011;61036;53.224;6.554;2022-08-21T14:11:25;8.60;;;2.20;;
72895;SDS011;61036;53.224;6.554;2022-08-21T14:16:24;6.13;;;2.07;;
72895;SDS011;61036;53.224;6.554;2022-08-21T14:18:53;5.80;;;2.03;;
72895;SDS011;61036;53.224;6.554;2022-08-21T14:21:38;5.07;;;1.70;;
72895;SDS011;61036;53.224;6.554;2022-08-21T14:24:11;7.13;;;2.30;;
72895;SDS011;61036;53.224;6.554;2022-08-21T14:29:26;6.07;;;2.23;;
72895;SDS011;61036;53.224;6.554;2022-08-21T14:31:58;6.90;;;2.07;;
72895;SDS011;61036;53.224;6.554;2022-08-21T14:34:26;8.63;;;2.77;;
72895;SDS011;61036;53.224;6.554;2022-08-21T14:36:55;6.13;;;2.30;;
72895;SDS011;61036;53.224;6.554;2022-08-21T14:39:21;6.13;;;2.13;;
72895;SDS011;61036;53.224;6.554;2022-08-21T14:41:47;6.00;;;2.10;;
72895;SDS011;61036;53.224;6.554;2022-08-21T14:44:16;5.03;;;1.80;;
72895;SDS011;61036;53.224;6.554;2022-08-21T14:46:43;5.00;;;2.13;;
72895;SDS011;61036;53.224;6.554;2022-08-21T14:49:09;4.53;;;1.80;;
72895;SDS011;61036;53.224;6.554;2022-08-21T14:51:35;6.97;;;1.97;;
72895;SDS011;61036;53.224;6.554;2022-08-21T14:54:01;6.63;;;2.60;;
72895;SDS011;61036;53.224;6.554;2022-08-21T14:56:27;6.27;;;2.10;;
72895;SDS011;61036;53.224;6.554;2022-08-21T14:58:55;7.83;;;2.20;;
72895;SDS011;61036;53.224;6.554;2022-08-21T15:01:29;5.57;;;1.90;;
72895;SDS011;61036;53.224;6.554;2022-08-21T15:03:57;7.30;;;2.37;;
72895;SDS011;61036;53.224;6.554;2022-08-21T15:06:26;5.70;;;2.20;;
72895;SDS011;61036;53.224;6.554;2022-08-21T15:08:55;5.43;;;2.37;;
72895;SDS011;61036;53.224;6.554;2022-08-21T15:11:21;4.97;;;2.30;;
72895;SDS011;61036;53.224;6.554;2022-08-21T15:13:54;6.37;;;2.47;;
72895;SDS011;61036;53.224;6.554;2022-08-21T15:16:26;5.50;;;2.23;;
72895;SDS011;61036;53.224;6.554;2022-08-21T15:18:53;5.70;;;2.20;;
72895;SDS011;61036;53.224;6.554;2022-08-21T15:21:20;6.20;;;2.23;;
72895;SDS011;61036;53.224;6.554;2022-08-21T15:23:48;5.37;;;2.33;;
72895;SDS011;61036;53.224;6.554;2022-08-21T15:26:14;6.33;;;2.20;;
72895;SDS011;61036;53.224;6.554;2022-08-21T15:28:40;7.23;;;2.60;;
72895;SDS011;61036;53.224;6.554;2022-08-21T15:31:06;6.13;;;2.00;;
72895;SDS011;61036;53.224;6.554;2022-08-21T15:33:33;5.50;;;2.40;;
72895;SDS011;61036;53.224;6.554;2022-08-21T15:35:59;7.23;;;2.27;;
72895;SDS011;61036;53.224;6.554;2022-08-21T15:38:25;5.37;;;2.20;;
72895;SDS011;61036;53.224;6.554;2022-08-21T15:40:51;6.20;;;2.17;;
72895;SDS011;61036;53.224;6.554;2022-08-21T15:43:21;6.00;;;2.00;;
72895;SDS011;61036;53.224;6.554;2022-08-21T15:45:49;6.53;;;1.90;;
72895;SDS011;61036;53.224;6.554;2022-08-21T15:48:18;6.93;;;2.30;;
72895;SDS011;61036;53.224;6.554;2022-08-21T15:50:43;5.23;;;2.17;;
72895;SDS011;61036;53.224;6.554;2022-08-21T15:53:09;8.33;;;2.30;;
72895;SDS011;61036;53.224;6.554;2022-08-21T15:55:35;7.23;;;2.30;;
72895;SDS011;61036;53.224;6.554;2022-08-21T15:58:02;5.77;;;1.90;;
72895;SDS011;61036;53.224;6.554;2022-08-21T16:00:32;7.07;;;2.40;;
72895;SDS011;61036;53.224;6.554;2022-08-21T16:03:00;8.47;;;2.50;;
72895;SDS011;61036;53.224;6.554;2022-08-21T16:05:29;8.07;;;2.70;;
72895;SDS011;61036;53.224;6.554;2022-08-21T16:07:56;8.13;;;2.40;;
72895;SDS011;61036;53.224;6.554;2022-08-21T16:10:23;9.30;;;2.20;;
72895;SDS011;61036;53.224;6.554;2022-08-21T16:12:51;8.37;;;2.13;;
72895;SDS011;61036;53.224;6.554;2022-08-21T16:15:20;5.77;;;1.87;;
72895;SDS011;61036;53.224;6.554;2022-08-21T16:17:47;9.23;;;2.40;;
72895;SDS011;61036;53.224;6.554;2022-08-21T16:20:15;5.93;;;1.90;;
72895;SDS011;61036;53.224;6.554;2022-08-21T16:22:43;6.97;;;2.20;;
72895;SDS011;61036;53.224;6.554;2022-08-21T16:25:10;7.07;;;2.13;;
72895;SDS011;61036;53.224;6.554;2022-08-21T16:27:36;5.33;;;1.93;;
72895;SDS011;61036;53.224;6.554;2022-08-21T16:30:03;8.87;;;2.30;;